sensor_id;sensor_type;location;lat;lon;timestamp;temperature;humidity
15099;DHT22;33900;53.640;9.942;2023-05-18T00:01:18;12.00;69.20
15099;DHT22;33900;53.640;9.942;2023-05-18T00:03:44;12.00;69.30
15099;DHT22;33900;53.640;9.942;2023-05-18T00:06:10;12.00;69.40
15099;DHT22;33900;53.640;9.942;2023-05-18T00:08:36;12.10;69.60
15099;DHT22;33900;53.640;9.942;2023-05-18T00:11:02;12.10;69.60
15099;DHT22;33900;53.640;9.942;2023-05-18T00:13:28;12.10;69.60
15099;DHT22;33900;53.640;9.942;2023-05-18T00:15:57;12.10;69.50
15099;DHT22;33900;53.640;9.942;2023-05-18T00:18:23;12.20;69.60
15099;DHT22;33900;53.640;9.942;2023-05-18T00:20:50;12.20;69.60
15099;DHT22;33900;53.640;9.942;2023-05-18T00:23:25;12.20;69.50
15099;DHT22;33900;53.640;9.942;2023-05-18T00:25:55;12.20;69.50
15099;DHT22;33900;53.640;9.942;2023-05-18T00:28:21;12.20;69.50
15099;DHT22;33900;53.640;9.942;2023-05-18T00:30:47;12.30;69.50
15099;DHT22;33900;53.640;9.942;2023-05-18T00:33:12;12.30;69.40
15099;DHT22;33900;53.640;9.942;2023-05-18T00:35:38;12.30;69.40
15099;DHT22;33900;53.640;9.942;2023-05-18T00:38:07;12.30;69.30
15099;DHT22;33900;53.640;9.942;2023-05-18T00:40:33;12.30;69.20
15099;DHT22;33900;53.640;9.942;2023-05-18T00:42:59;12.30;69.20
15099;DHT22;33900;53.640;9.942;2023-05-18T00:45:25;12.30;69.10
15099;DHT22;33900;53.640;9.942;2023-05-18T00:47:51;12.30;69.10
15099;DHT22;33900;53.640;9.942;2023-05-18T00:50:18;12.30;69.10
15099;DHT22;33900;53.640;9.942;2023-05-18T00:52:44;12.30;69.10
15099;DHT22;33900;53.640;9.942;2023-05-18T00:55:10;12.20;69.00
15099;DHT22;33900;53.640;9.942;2023-05-18T00:57:37;12.30;69.10
15099;DHT22;33900;53.640;9.942;2023-05-18T01:00:03;12.20;69.00
15099;DHT22;33900;53.640;9.942;2023-05-18T01:02:31;12.20;69.00
15099;DHT22;33900;53.640;9.942;2023-05-18T01:04:57;12.20;69.00
15099;DHT22;33900;53.640;9.942;2023-05-18T01:07:28;12.20;69.10
15099;DHT22;33900;53.640;9.942;2023-05-18T01:09:57;12.20;69.10
15099;DHT22;33900;53.640;9.942;2023-05-18T01:12:25;12.10;69.10
15099;DHT22;33900;53.640;9.942;2023-05-18T01:17:33;12.10;69.10
15099;DHT22;33900;53.640;9.942;2023-05-18T01:20:10;12.10;69.10
15099;DHT22;33900;53.640;9.942;2023-05-18T01:28:07;12.00;69.10
15099;DHT22;33900;53.640;9.942;2023-05-18T01:30:37;12.00;69.20
15099;DHT22;33900;53.640;9.942;2023-05-18T01:33:09;12.00;69.20
15099;DHT22;33900;53.640;9.942;2023-05-18T01:35:38;11.90;69.20
15099;DHT22;33900;53.640;9.942;2023-05-18T01:38:06;11.90;69.20
15099;DHT22;33900;53.640;9.942;2023-05-18T01:40:44;11.90;69.30
15099;DHT22;33900;53.640;9.942;2023-05-18T01:43:13;11.90;69.30
15099;DHT22;33900;53.640;9.942;2023-05-18T01:45:41;11.90;69.40
15099;DHT22;33900;53.640;9.942;2023-05-18T01:48:08;11.80;69.40
15099;DHT22;33900;53.640;9.942;2023-05-18T01:50:37;11.80;69.40
15099;DHT22;33900;53.640;9.942;2023-05-18T01:53:11;11.80;69.40
15099;DHT22;33900;53.640;9.942;2023-05-18T01:55:39;11.80;69.50
15099;DHT22;33900;53.640;9.942;2023-05-18T01:58:08;11.70;69.50
15099;DHT22;33900;53.640;9.942;2023-05-18T02:00:34;11.70;69.60
15099;DHT22;33900;53.640;9.942;2023-05-18T02:03:01;11.70;69.60
15099;DHT22;33900;53.640;9.942;2023-05-18T02:05:27;11.70;69.70
15099;DHT22;33900;53.640;9.942;2023-05-18T02:07:52;11.70;69.80
15099;DHT22;33900;53.640;9.942;2023-05-18T02:10:18;11.70;69.80
15099;DHT22;33900;53.640;9.942;2023-05-18T02:12:44;11.60;69.80
15099;DHT22;33900;53.640;9.942;2023-05-18T02:15:13;11.60;69.90
15099;DHT22;33900;53.640;9.942;2023-05-18T02:17:39;11.60;70.00
15099;DHT22;33900;53.640;9.942;2023-05-18T02:20:05;11.60;70.00
15099;DHT22;33900;53.640;9.942;2023-05-18T02:22:35;11.60;70.10
15099;DHT22;33900;53.640;9.942;2023-05-18T02:25:01;11.50;70.00
15099;DHT22;33900;53.640;9.942;2023-05-18T02:27:27;11.60;70.10
15099;DHT22;33900;53.640;9.942;2023-05-18T02:29:53;11.60;70.20
15099;DHT22;33900;53.640;9.942;2023-05-18T02:32:19;11.50;70.20
15099;DHT22;33900;53.640;9.942;2023-05-18T02:34:59;11.50;70.20
15099;DHT22;33900;53.640;9.942;2023-05-18T02:37:27;11.50;70.30
15099;DHT22;33900;53.640;9.942;2023-05-18T02:39:59;11.50;70.30
15099;DHT22;33900;53.640;9.942;2023-05-18T02:42:25;11.50;70.30
15099;DHT22;33900;53.640;9.942;2023-05-18T02:44:53;11.50;70.30
15099;DHT22;33900;53.640;9.942;2023-05-18T02:47:21;11.50;70.40
15099;DHT22;33900;53.640;9.942;2023-05-18T02:49:49;11.50;70.40
15099;DHT22;33900;53.640;9.942;2023-05-18T02:52:16;11.50;70.50
15099;DHT22;33900;53.640;9.942;2023-05-18T02:54:42;11.50;70.50
15099;DHT22;33900;53.640;9.942;2023-05-18T02:57:14;11.50;70.60
15099;DHT22;33900;53.640;9.942;2023-05-18T02:59:55;11.40;70.60
15099;DHT22;33900;53.640;9.942;2023-05-18T03:02:22;11.40;70.60
15099;DHT22;33900;53.640;9.942;2023-05-18T03:04:48;11.50;70.70
15099;DHT22;33900;53.640;9.942;2023-05-18T03:07:19;11.40;70.80
15099;DHT22;33900;53.640;9.942;2023-05-18T03:09:47;11.40;71.60
15099;DHT22;33900;53.640;9.942;2023-05-18T03:12:12;11.40;70.90
15099;DHT22;33900;53.640;9.942;2023-05-18T03:14:38;11.40;70.90
15099;DHT22;33900;53.640;9.942;2023-05-18T03:17:04;11.40;71.00
15099;DHT22;33900;53.640;9.942;2023-05-18T03:19:31;11.40;70.90
15099;DHT22;33900;53.640;9.942;2023-05-18T03:21:58;11.30;70.80
15099;DHT22;33900;53.640;9.942;2023-05-18T03:24:23;11.30;70.90
15099;DHT22;33900;53.640;9.942;2023-05-18T03:26:51;11.40;71.00
15099;DHT22;33900;53.640;9.942;2023-05-18T03:29:19;11.40;71.00
15099;DHT22;33900;53.640;9.942;2023-05-18T03:31:45;11.40;71.10
15099;DHT22;33900;53.640;9.942;2023-05-18T03:34:12;11.40;71.00
15099;DHT22;33900;53.640;9.942;2023-05-18T03:36:38;11.40;71.10
15099;DHT22;33900;53.640;9.942;2023-05-18T03:39:04;11.40;71.10
15099;DHT22;33900;53.640;9.942;2023-05-18T03:41:33;11.40;71.10
15099;DHT22;33900;53.640;9.942;2023-05-18T03:43:58;11.30;71.10
15099;DHT22;33900;53.640;9.942;2023-05-18T03:46:24;11.40;71.20
15099;DHT22;33900;53.640;9.942;2023-05-18T03:48:51;11.40;71.20
15099;DHT22;33900;53.640;9.942;2023-05-18T03:51:31;11.40;71.20
15099;DHT22;33900;53.640;9.942;2023-05-18T03:53:58;11.40;71.20
15099;DHT22;33900;53.640;9.942;2023-05-18T03:56:27;11.40;71.10
15099;DHT22;33900;53.640;9.942;2023-05-18T03:58:56;11.40;71.10
15099;DHT22;33900;53.640;9.942;2023-05-18T04:01:23;11.40;71.10
15099;DHT22;33900;53.640;9.942;2023-05-18T04:03:50;11.40;71.90
15099;DHT22;33900;53.640;9.942;2023-05-18T04:06:16;11.40;71.20
15099;DHT22;33900;53.640;9.942;2023-05-18T04:08:42;11.40;71.20
15099;DHT22;33900;53.640;9.942;2023-05-18T04:11:07;11.40;71.20
15099;DHT22;33900;53.640;9.942;2023-05-18T04:13:36;11.40;71.20
15099;DHT22;33900;53.640;9.942;2023-05-18T04:16:02;11.40;71.10
15099;DHT22;33900;53.640;9.942;2023-05-18T04:18:28;11.40;71.10
15099;DHT22;33900;53.640;9.942;2023-05-18T04:20:54;11.40;71.00
15099;DHT22;33900;53.640;9.942;2023-05-18T04:23:23;11.50;71.20
15099;DHT22;33900;53.640;9.942;2023-05-18T04:25:49;11.40;71.20
15099;DHT22;33900;53.640;9.942;2023-05-18T04:28:15;11.50;71.20
15099;DHT22;33900;53.640;9.942;2023-05-18T04:30:40;11.50;71.30
15099;DHT22;33900;53.640;9.942;2023-05-18T04:33:06;11.50;71.30
15099;DHT22;33900;53.640;9.942;2023-05-18T04:35:33;11.50;71.30
15099;DHT22;33900;53.640;9.942;2023-05-18T04:37:59;11.50;71.30
15099;DHT22;33900;53.640;9.942;2023-05-18T04:40:24;11.50;71.30
15099;DHT22;33900;53.640;9.942;2023-05-18T04:42:50;11.60;71.40
15099;DHT22;33900;53.640;9.942;2023-05-18T04:45:19;11.60;71.30
15099;DHT22;33900;53.640;9.942;2023-05-18T04:47:48;11.60;71.30
15099;DHT22;33900;53.640;9.942;2023-05-18T04:50:20;11.60;71.30
15099;DHT22;33900;53.640;9.942;2023-05-18T04:52:48;11.60;71.20
15099;DHT22;33900;53.640;9.942;2023-05-18T04:55:17;11.70;71.20
15099;DHT22;33900;53.640;9.942;2023-05-18T04:57:48;11.70;71.20
15099;DHT22;33900;53.640;9.942;2023-05-18T05:00:15;11.70;71.10
15099;DHT22;33900;53.640;9.942;2023-05-18T05:02:41;11.70;71.00
15099;DHT22;33900;53.640;9.942;2023-05-18T05:05:07;11.70;71.10
15099;DHT22;33900;53.640;9.942;2023-05-18T05:07:33;11.80;71.10
15099;DHT22;33900;53.640;9.942;2023-05-18T05:09:58;11.80;71.00
15099;DHT22;33900;53.640;9.942;2023-05-18T05:12:24;11.80;71.00
15099;DHT22;33900;53.640;9.942;2023-05-18T05:14:49;11.80;70.90
15099;DHT22;33900;53.640;9.942;2023-05-18T05:17:19;11.80;70.90
15099;DHT22;33900;53.640;9.942;2023-05-18T05:19:44;11.80;70.90
15099;DHT22;33900;53.640;9.942;2023-05-18T05:22:10;11.80;70.80
15099;DHT22;33900;53.640;9.942;2023-05-18T05:24:36;11.90;70.80
15099;DHT22;33900;53.640;9.942;2023-05-18T05:27:02;11.90;70.70
15099;DHT22;33900;53.640;9.942;2023-05-18T05:29:28;11.90;70.70
15099;DHT22;33900;53.640;9.942;2023-05-18T05:31:53;11.90;70.80
15099;DHT22;33900;53.640;9.942;2023-05-18T05:34:19;11.90;70.70
15099;DHT22;33900;53.640;9.942;2023-05-18T05:36:45;12.00;70.70
15099;DHT22;33900;53.640;9.942;2023-05-18T05:39:10;12.00;70.70
15099;DHT22;33900;53.640;9.942;2023-05-18T05:41:37;12.00;70.70
15099;DHT22;33900;53.640;9.942;2023-05-18T05:44:03;12.00;70.70
15099;DHT22;33900;53.640;9.942;2023-05-18T05:46:29;12.00;70.60
15099;DHT22;33900;53.640;9.942;2023-05-18T05:48:56;12.00;70.50
15099;DHT22;33900;53.640;9.942;2023-05-18T05:51:22;12.00;70.40
15099;DHT22;33900;53.640;9.942;2023-05-18T05:53:48;12.10;70.40
15099;DHT22;33900;53.640;9.942;2023-05-18T05:56:15;12.10;70.40
15099;DHT22;33900;53.640;9.942;2023-05-18T05:58:41;12.10;70.40
15099;DHT22;33900;53.640;9.942;2023-05-18T06:01:07;12.10;70.40
15099;DHT22;33900;53.640;9.942;2023-05-18T06:03:33;12.20;70.50
15099;DHT22;33900;53.640;9.942;2023-05-18T06:06:00;12.10;70.30
15099;DHT22;33900;53.640;9.942;2023-05-18T06:08:27;12.10;70.10
15099;DHT22;33900;53.640;9.942;2023-05-18T06:10:53;12.10;70.10
15099;DHT22;33900;53.640;9.942;2023-05-18T06:13:19;12.20;70.20
15099;DHT22;33900;53.640;9.942;2023-05-18T06:15:50;12.20;70.10
15099;DHT22;33900;53.640;9.942;2023-05-18T06:18:16;12.20;70.10
15099;DHT22;33900;53.640;9.942;2023-05-18T06:20:43;12.30;70.30
15099;DHT22;33900;53.640;9.942;2023-05-18T06:23:09;12.30;70.10
15099;DHT22;33900;53.640;9.942;2023-05-18T06:25:58;12.30;70.10
15099;DHT22;33900;53.640;9.942;2023-05-18T06:28:34;12.30;70.00
15099;DHT22;33900;53.640;9.942;2023-05-18T06:31:13;12.30;70.00
15099;DHT22;33900;53.640;9.942;2023-05-18T06:33:49;12.30;69.90
15099;DHT22;33900;53.640;9.942;2023-05-18T06:36:18;12.40;70.00
15099;DHT22;33900;53.640;9.942;2023-05-18T06:38:44;12.40;69.90
15099;DHT22;33900;53.640;9.942;2023-05-18T06:41:10;12.40;69.80
15099;DHT22;33900;53.640;9.942;2023-05-18T06:43:36;12.40;69.80
15099;DHT22;33900;53.640;9.942;2023-05-18T06:46:23;12.40;69.70
15099;DHT22;33900;53.640;9.942;2023-05-18T06:48:56;12.40;69.60
15099;DHT22;33900;53.640;9.942;2023-05-18T06:51:23;12.50;69.70
15099;DHT22;33900;53.640;9.942;2023-05-18T06:53:49;12.50;69.70
15099;DHT22;33900;53.640;9.942;2023-05-18T06:56:15;12.50;69.70
15099;DHT22;33900;53.640;9.942;2023-05-18T06:58:43;12.50;69.70
15099;DHT22;33900;53.640;9.942;2023-05-18T07:01:09;12.50;69.60
15099;DHT22;33900;53.640;9.942;2023-05-18T07:03:35;12.50;69.40
15099;DHT22;33900;53.640;9.942;2023-05-18T07:06:02;12.60;69.50
15099;DHT22;33900;53.640;9.942;2023-05-18T07:08:29;12.60;69.50
15099;DHT22;33900;53.640;9.942;2023-05-18T07:10:56;12.60;69.60
15099;DHT22;33900;53.640;9.942;2023-05-18T07:13:22;12.70;69.50
15099;DHT22;33900;53.640;9.942;2023-05-18T07:15:48;12.70;69.40
15099;DHT22;33900;53.640;9.942;2023-05-18T07:18:16;12.70;69.20
15099;DHT22;33900;53.640;9.942;2023-05-18T07:20:42;12.70;69.10
15099;DHT22;33900;53.640;9.942;2023-05-18T07:23:07;12.70;69.00
15099;DHT22;33900;53.640;9.942;2023-05-18T07:25:33;12.80;69.00
15099;DHT22;33900;53.640;9.942;2023-05-18T07:27:58;12.80;68.90
15099;DHT22;33900;53.640;9.942;2023-05-18T07:30:24;12.80;68.70
15099;DHT22;33900;53.640;9.942;2023-05-18T07:32:52;12.80;68.70
15099;DHT22;33900;53.640;9.942;2023-05-18T07:35:18;12.90;68.70
15099;DHT22;33900;53.640;9.942;2023-05-18T07:37:45;12.90;68.40
15099;DHT22;33900;53.640;9.942;2023-05-18T07:40:11;12.90;68.30
15099;DHT22;33900;53.640;9.942;2023-05-18T07:42:37;13.00;68.40
15099;DHT22;33900;53.640;9.942;2023-05-18T07:45:03;13.00;68.40
15099;DHT22;33900;53.640;9.942;2023-05-18T07:47:29;13.00;68.40
15099;DHT22;33900;53.640;9.942;2023-05-18T07:49:54;13.10;68.50
15099;DHT22;33900;53.640;9.942;2023-05-18T07:52:20;13.10;68.40
15099;DHT22;33900;53.640;9.942;2023-05-18T07:54:46;13.20;68.30
15099;DHT22;33900;53.640;9.942;2023-05-18T07:57:11;13.20;68.10
15099;DHT22;33900;53.640;9.942;2023-05-18T07:59:37;13.20;68.00
15099;DHT22;33900;53.640;9.942;2023-05-18T08:02:03;13.30;68.10
15099;DHT22;33900;53.640;9.942;2023-05-18T08:04:33;13.40;68.10
15099;DHT22;33900;53.640;9.942;2023-05-18T08:06:59;13.50;67.90
15099;DHT22;33900;53.640;9.942;2023-05-18T08:09:25;13.60;67.80
15099;DHT22;33900;53.640;9.942;2023-05-18T08:11:51;13.60;67.50
15099;DHT22;33900;53.640;9.942;2023-05-18T08:14:16;13.70;67.40
15099;DHT22;33900;53.640;9.942;2023-05-18T08:16:42;13.80;67.40
15099;DHT22;33900;53.640;9.942;2023-05-18T08:19:08;13.90;67.40
15099;DHT22;33900;53.640;9.942;2023-05-18T08:21:33;13.90;67.20
15099;DHT22;33900;53.640;9.942;2023-05-18T08:23:59;13.90;67.10
15099;DHT22;33900;53.640;9.942;2023-05-18T08:26:28;13.90;67.00
15099;DHT22;33900;53.640;9.942;2023-05-18T08:28:53;14.00;67.40
15099;DHT22;33900;53.640;9.942;2023-05-18T08:31:19;14.20;68.10
15099;DHT22;33900;53.640;9.942;2023-05-18T08:33:46;14.40;68.10
15099;DHT22;33900;53.640;9.942;2023-05-18T08:36:12;14.70;68.40
15099;DHT22;33900;53.640;9.942;2023-05-18T08:38:38;15.00;68.60
15099;DHT22;33900;53.640;9.942;2023-05-18T08:41:07;15.30;68.90
15099;DHT22;33900;53.640;9.942;2023-05-18T08:43:36;15.70;68.20
15099;DHT22;33900;53.640;9.942;2023-05-18T08:46:19;16.20;67.90
15099;DHT22;33900;53.640;9.942;2023-05-18T08:48:45;16.60;67.50
15099;DHT22;33900;53.640;9.942;2023-05-18T08:51:11;17.20;66.10
15099;DHT22;33900;53.640;9.942;2023-05-18T08:53:39;17.70;63.80
15099;DHT22;33900;53.640;9.942;2023-05-18T08:56:05;18.20;63.90
15099;DHT22;33900;53.640;9.942;2023-05-18T08:58:41;18.70;60.60
15099;DHT22;33900;53.640;9.942;2023-05-18T09:01:08;19.30;60.00
15099;DHT22;33900;53.640;9.942;2023-05-18T09:03:34;20.00;58.60
15099;DHT22;33900;53.640;9.942;2023-05-18T09:06:00;20.60;55.50
15099;DHT22;33900;53.640;9.942;2023-05-18T09:08:27;21.00;54.10
15099;DHT22;33900;53.640;9.942;2023-05-18T09:10:53;21.10;52.40
15099;DHT22;33900;53.640;9.942;2023-05-18T09:13:20;20.90;51.20
15099;DHT22;33900;53.640;9.942;2023-05-18T09:15:47;20.50;50.70
15099;DHT22;33900;53.640;9.942;2023-05-18T09:18:13;20.30;50.60
15099;DHT22;33900;53.640;9.942;2023-05-18T09:20:39;20.00;50.10
15099;DHT22;33900;53.640;9.942;2023-05-18T09:23:04;19.60;50.40
15099;DHT22;33900;53.640;9.942;2023-05-18T09:25:31;19.30;51.20
15099;DHT22;33900;53.640;9.942;2023-05-18T09:27:56;18.90;51.80
15099;DHT22;33900;53.640;9.942;2023-05-18T09:30:23;18.70;52.20
15099;DHT22;33900;53.640;9.942;2023-05-18T09:32:50;18.40;52.50
15099;DHT22;33900;53.640;9.942;2023-05-18T09:35:17;18.20;52.50
15099;DHT22;33900;53.640;9.942;2023-05-18T09:37:43;17.90;53.00
15099;DHT22;33900;53.640;9.942;2023-05-18T09:40:08;17.70;53.70
15099;DHT22;33900;53.640;9.942;2023-05-18T09:45:01;17.20;54.10
15099;DHT22;33900;53.640;9.942;2023-05-18T09:47:27;17.20;54.60
15099;DHT22;33900;53.640;9.942;2023-05-18T09:49:54;17.20;55.00
15099;DHT22;33900;53.640;9.942;2023-05-18T09:52:20;17.10;55.30
15099;DHT22;33900;53.640;9.942;2023-05-18T09:54:51;16.90;55.40
15099;DHT22;33900;53.640;9.942;2023-05-18T09:57:19;16.80;55.50
15099;DHT22;33900;53.640;9.942;2023-05-18T09:59:46;16.70;55.60
15099;DHT22;33900;53.640;9.942;2023-05-18T10:02:16;16.60;55.90
15099;DHT22;33900;53.640;9.942;2023-05-18T10:04:43;16.50;56.00
15099;DHT22;33900;53.640;9.942;2023-05-18T10:07:09;16.40;56.10
15099;DHT22;33900;53.640;9.942;2023-05-18T10:09:41;16.30;56.20
15099;DHT22;33900;53.640;9.942;2023-05-18T10:12:14;16.30;56.50
15099;DHT22;33900;53.640;9.942;2023-05-18T10:14:41;16.20;56.60
15099;DHT22;33900;53.640;9.942;2023-05-18T10:17:07;16.20;56.90
15099;DHT22;33900;53.640;9.942;2023-05-18T10:19:34;16.30;57.20
15099;DHT22;33900;53.640;9.942;2023-05-18T10:22:01;16.40;57.30
15099;DHT22;33900;53.640;9.942;2023-05-18T10:24:28;16.40;57.30
15099;DHT22;33900;53.640;9.942;2023-05-18T10:26:54;16.40;57.40
15099;DHT22;33900;53.640;9.942;2023-05-18T10:29:22;16.40;57.50
15099;DHT22;33900;53.640;9.942;2023-05-18T10:31:48;16.40;57.30
15099;DHT22;33900;53.640;9.942;2023-05-18T10:34:14;16.30;57.20
15099;DHT22;33900;53.640;9.942;2023-05-18T10:36:43;16.30;57.10
15099;DHT22;33900;53.640;9.942;2023-05-18T10:39:08;16.20;57.20
15099;DHT22;33900;53.640;9.942;2023-05-18T10:41:34;16.20;57.40
15099;DHT22;33900;53.640;9.942;2023-05-18T10:44:01;16.10;57.30
15099;DHT22;33900;53.640;9.942;2023-05-18T10:46:28;16.20;57.50
15099;DHT22;33900;53.640;9.942;2023-05-18T10:48:54;16.20;57.60
15099;DHT22;33900;53.640;9.942;2023-05-18T10:51:21;16.20;57.60
15099;DHT22;33900;53.640;9.942;2023-05-18T10:53:48;16.20;57.80
15099;DHT22;33900;53.640;9.942;2023-05-18T10:56:14;16.20;57.80
15099;DHT22;33900;53.640;9.942;2023-05-18T10:58:41;16.20;57.80
15099;DHT22;33900;53.640;9.942;2023-05-18T11:01:08;16.20;58.00
15099;DHT22;33900;53.640;9.942;2023-05-18T11:03:39;16.30;58.00
15099;DHT22;33900;53.640;9.942;2023-05-18T11:08:33;16.30;57.90
15099;DHT22;33900;53.640;9.942;2023-05-18T11:11:03;16.30;57.90
15099;DHT22;33900;53.640;9.942;2023-05-18T11:13:37;16.20;57.90
15099;DHT22;33900;53.640;9.942;2023-05-18T11:16:07;16.20;57.90
15099;DHT22;33900;53.640;9.942;2023-05-18T11:26:37;16.20;58.30
15099;DHT22;33900;53.640;9.942;2023-05-18T11:29:14;16.20;58.10
15099;DHT22;33900;53.640;9.942;2023-05-18T11:31:43;16.20;57.70
15099;DHT22;33900;53.640;9.942;2023-05-18T11:36:56;16.10;57.50
15099;DHT22;33900;53.640;9.942;2023-05-18T11:39:22;16.10;57.70
15099;DHT22;33900;53.640;9.942;2023-05-18T11:41:58;16.10;57.80
15099;DHT22;33900;53.640;9.942;2023-05-18T11:44:24;16.10;58.10
15099;DHT22;33900;53.640;9.942;2023-05-18T11:49:24;16.20;58.50
15099;DHT22;33900;53.640;9.942;2023-05-18T11:52:00;16.30;58.70
15099;DHT22;33900;53.640;9.942;2023-05-18T11:54:26;16.40;58.70
15099;DHT22;33900;53.640;9.942;2023-05-18T11:56:52;16.50;58.50
15099;DHT22;33900;53.640;9.942;2023-05-18T11:59:31;16.60;58.50
15099;DHT22;33900;53.640;9.942;2023-05-18T12:01:58;16.70;58.40
15099;DHT22;33900;53.640;9.942;2023-05-18T12:04:24;16.80;58.60
15099;DHT22;33900;53.640;9.942;2023-05-18T12:06:51;17.00;58.80
15099;DHT22;33900;53.640;9.942;2023-05-18T12:09:17;17.10;58.80
15099;DHT22;33900;53.640;9.942;2023-05-18T12:11:43;17.30;58.90
15099;DHT22;33900;53.640;9.942;2023-05-18T12:14:08;17.40;58.90
15099;DHT22;33900;53.640;9.942;2023-05-18T12:16:38;17.60;59.00
15099;DHT22;33900;53.640;9.942;2023-05-18T12:19:07;17.60;58.80
15099;DHT22;33900;53.640;9.942;2023-05-18T12:21:36;17.80;58.90
15099;DHT22;33900;53.640;9.942;2023-05-18T12:24:02;17.90;58.70
15099;DHT22;33900;53.640;9.942;2023-05-18T12:26:28;18.10;59.20
15099;DHT22;33900;53.640;9.942;2023-05-18T12:28:55;18.30;58.70
15099;DHT22;33900;53.640;9.942;2023-05-18T12:31:21;18.40;58.70
15099;DHT22;33900;53.640;9.942;2023-05-18T12:33:46;18.60;58.80
15099;DHT22;33900;53.640;9.942;2023-05-18T12:36:12;18.80;58.50
15099;DHT22;33900;53.640;9.942;2023-05-18T12:38:38;18.90;58.50
15099;DHT22;33900;53.640;9.942;2023-05-18T12:41:03;19.00;58.40
15099;DHT22;33900;53.640;9.942;2023-05-18T12:43:34;19.00;58.40
15099;DHT22;33900;53.640;9.942;2023-05-18T12:46:03;19.10;58.40
15099;DHT22;33900;53.640;9.942;2023-05-18T12:48:36;19.10;58.30
15099;DHT22;33900;53.640;9.942;2023-05-18T12:51:02;19.20;58.40
15099;DHT22;33900;53.640;9.942;2023-05-18T12:53:40;19.30;58.30
15099;DHT22;33900;53.640;9.942;2023-05-18T12:56:07;19.40;57.70
15099;DHT22;33900;53.640;9.942;2023-05-18T12:58:35;19.50;57.70
15099;DHT22;33900;53.640;9.942;2023-05-18T13:01:08;19.50;57.80
15099;DHT22;33900;53.640;9.942;2023-05-18T13:03:34;19.60;57.90
15099;DHT22;33900;53.640;9.942;2023-05-18T13:06:03;19.70;57.70
15099;DHT22;33900;53.640;9.942;2023-05-18T13:08:29;19.80;57.00
15099;DHT22;33900;53.640;9.942;2023-05-18T13:10:59;19.80;57.10
15099;DHT22;33900;53.640;9.942;2023-05-18T13:13:25;19.90;56.80
15099;DHT22;33900;53.640;9.942;2023-05-18T13:15:50;19.90;56.60
15099;DHT22;33900;53.640;9.942;2023-05-18T13:18:16;19.90;56.60
15099;DHT22;33900;53.640;9.942;2023-05-18T13:20:46;20.00;56.70
15099;DHT22;33900;53.640;9.942;2023-05-18T13:23:14;20.00;56.80
15099;DHT22;33900;53.640;9.942;2023-05-18T13:25:40;20.00;56.70
15099;DHT22;33900;53.640;9.942;2023-05-18T13:28:06;20.10;56.70
15099;DHT22;33900;53.640;9.942;2023-05-18T13:30:33;20.10;56.80
15099;DHT22;33900;53.640;9.942;2023-05-18T13:32:59;20.10;56.90
15099;DHT22;33900;53.640;9.942;2023-05-18T13:35:25;20.20;56.70
15099;DHT22;33900;53.640;9.942;2023-05-18T13:37:50;20.30;56.80
15099;DHT22;33900;53.640;9.942;2023-05-18T13:40:18;20.30;56.90
15099;DHT22;33900;53.640;9.942;2023-05-18T13:42:45;20.40;56.60
15099;DHT22;33900;53.640;9.942;2023-05-18T13:45:11;20.40;56.60
15099;DHT22;33900;53.640;9.942;2023-05-18T13:47:40;20.30;56.70
15099;DHT22;33900;53.640;9.942;2023-05-18T13:50:06;20.40;56.70
15099;DHT22;33900;53.640;9.942;2023-05-18T13:52:32;20.40;56.80
15099;DHT22;33900;53.640;9.942;2023-05-18T13:54:57;20.40;56.50
15099;DHT22;33900;53.640;9.942;2023-05-18T13:57:23;20.40;56.50
15099;DHT22;33900;53.640;9.942;2023-05-18T13:59:51;20.40;56.50
15099;DHT22;33900;53.640;9.942;2023-05-18T14:02:17;20.30;56.50
15099;DHT22;33900;53.640;9.942;2023-05-18T14:04:43;20.30;56.40
15099;DHT22;33900;53.640;9.942;2023-05-18T14:07:08;20.30;56.50
15099;DHT22;33900;53.640;9.942;2023-05-18T14:09:35;20.30;56.40
15099;DHT22;33900;53.640;9.942;2023-05-18T14:12:01;20.30;56.40
15099;DHT22;33900;53.640;9.942;2023-05-18T14:14:26;20.40;56.50
15099;DHT22;33900;53.640;9.942;2023-05-18T14:16:52;20.40;56.30
15099;DHT22;33900;53.640;9.942;2023-05-18T14:19:18;20.40;56.20
15099;DHT22;33900;53.640;9.942;2023-05-18T14:21:43;20.40;56.00
15099;DHT22;33900;53.640;9.942;2023-05-18T14:24:09;20.30;56.00
15099;DHT22;33900;53.640;9.942;2023-05-18T14:26:35;20.30;55.90
15099;DHT22;33900;53.640;9.942;2023-05-18T14:29:01;20.40;56.00
15099;DHT22;33900;53.640;9.942;2023-05-18T14:31:27;20.30;56.00
15099;DHT22;33900;53.640;9.942;2023-05-18T14:33:52;20.40;56.10
15099;DHT22;33900;53.640;9.942;2023-05-18T14:36:18;20.30;55.90
15099;DHT22;33900;53.640;9.942;2023-05-18T14:38:47;20.30;56.00
15099;DHT22;33900;53.640;9.942;2023-05-18T14:41:13;20.30;55.90
15099;DHT22;33900;53.640;9.942;2023-05-18T14:43:39;20.30;55.90
15099;DHT22;33900;53.640;9.942;2023-05-18T14:46:05;20.30;55.80
15099;DHT22;33900;53.640;9.942;2023-05-18T14:48:30;20.30;55.90
15099;DHT22;33900;53.640;9.942;2023-05-18T14:50:56;20.30;56.00
15099;DHT22;33900;53.640;9.942;2023-05-18T14:53:21;20.30;56.00
15099;DHT22;33900;53.640;9.942;2023-05-18T14:55:47;20.30;55.90
15099;DHT22;33900;53.640;9.942;2023-05-18T14:58:12;20.30;56.00
15099;DHT22;33900;53.640;9.942;2023-05-18T15:00:39;20.30;56.00
15099;DHT22;33900;53.640;9.942;2023-05-18T15:03:05;20.30;56.00
15099;DHT22;33900;53.640;9.942;2023-05-18T15:05:31;20.30;56.00
15099;DHT22;33900;53.640;9.942;2023-05-18T15:07:57;20.20;55.90
15099;DHT22;33900;53.640;9.942;2023-05-18T15:10:22;20.20;56.00
15099;DHT22;33900;53.640;9.942;2023-05-18T15:12:48;20.20;56.00
15099;DHT22;33900;53.640;9.942;2023-05-18T15:15:14;20.20;55.80
15099;DHT22;33900;53.640;9.942;2023-05-18T15:17:44;20.20;55.90
15099;DHT22;33900;53.640;9.942;2023-05-18T15:20:09;20.10;55.80
15099;DHT22;33900;53.640;9.942;2023-05-18T15:22:35;20.10;55.50
15099;DHT22;33900;53.640;9.942;2023-05-18T15:25:03;20.10;55.60
15099;DHT22;33900;53.640;9.942;2023-05-18T15:27:31;20.00;55.60
15099;DHT22;33900;53.640;9.942;2023-05-18T15:29:56;20.00;55.60
15099;DHT22;33900;53.640;9.942;2023-05-18T15:32:22;20.00;55.30
15099;DHT22;33900;53.640;9.942;2023-05-18T15:34:48;20.00;55.30
15099;DHT22;33900;53.640;9.942;2023-05-18T15:37:13;20.00;55.20
15099;DHT22;33900;53.640;9.942;2023-05-18T15:39:39;20.00;55.20
15099;DHT22;33900;53.640;9.942;2023-05-18T15:42:05;20.00;55.30
15099;DHT22;33900;53.640;9.942;2023-05-18T15:44:30;20.00;55.40
15099;DHT22;33900;53.640;9.942;2023-05-18T15:46:56;20.00;55.30
15099;DHT22;33900;53.640;9.942;2023-05-18T15:49:21;20.00;55.30
15099;DHT22;33900;53.640;9.942;2023-05-18T15:51:49;19.90;55.20
15099;DHT22;33900;53.640;9.942;2023-05-18T15:54:15;19.90;55.10
15099;DHT22;33900;53.640;9.942;2023-05-18T15:56:41;19.90;55.20